Time;durP1;ratioP1;P1;durP2;ratioP2;P2;SDS_P1;SDS_P2;PMS_P1;PMS_P2;Temp;Humidity;BMP_temperature;BMP_pressure;BME280_temperature;BME280_humidity;BME280_pressure;Samples;Min_cycle;Max_cycle;Signal;HPM_P1;HPM_P2
2023/01/21 00:00:41;;;;;;;36.03;9.17;;;0.10;99.90;;;;;;5032973;28;20449;-73
2023/01/21 00:03:09;;;;;;;17.73;8.57;;;0.10;99.90;;;;;;5033144;28;20548;-73
2023/01/21 00:05:36;;;;;;;12.63;7.07;;;0.00;99.90;;;;;;5032862;28;20449;-73
2023/01/21 00:08:03;;;;;;;12.60;7.53;;;-0.10;99.90;;;;;;5032627;28;20559;-73
2023/01/21 00:10:30;;;;;;;10.43;5.33;;;-0.10;99.90;;;;;;5032758;28;20480;-73
2023/01/21 00:12:57;;;;;;;10.97;6.03;;;-0.10;99.90;;;;;;5032791;28;20471;-73
2023/01/21 00:15:25;;;;;;;10.43;7.33;;;-0.10;99.90;;;;;;5044932;28;20499;-73
2023/01/21 00:17:53;;;;;;;7.53;5.60;;;-0.10;99.90;;;;;;5032958;28;20469;-73
2023/01/21 00:20:20;;;;;;;16.47;7.27;;;-0.10;99.90;;;;;;5032818;28;20468;-73
2023/01/21 00:22:46;;;;;;;29.50;9.37;;;-0.10;99.90;;;;;;5032828;28;20867;-73
2023/01/21 00:25:13;;;;;;;10.20;7.33;;;-0.10;99.90;;;;;;5032555;28;20538;-73
2023/01/21 00:27:41;;;;;;;14.43;8.40;;;-0.10;99.90;;;;;;5032474;28;20556;-73
2023/01/21 00:30:09;;;;;;;14.43;9.43;;;-0.10;99.90;;;;;;5032150;28;20510;-73
2023/01/21 00:32:37;;;;;;;16.87;9.00;;;-0.10;99.90;;;;;;5032153;28;20449;-73
2023/01/21 00:35:05;;;;;;;10.10;6.27;;;-0.20;99.90;;;;;;5032014;28;20461;-73
2023/01/21 00:37:33;;;;;;;13.90;8.40;;;-0.20;99.90;;;;;;5031516;28;20846;-73
2023/01/21 00:40:00;;;;;;;14.13;7.30;;;-0.20;99.90;;;;;;5032377;28;20545;-73
2023/01/21 00:42:27;;;;;;;11.27;7.47;;;-0.10;99.90;;;;;;5032227;28;20980;-73
2023/01/21 00:44:56;;;;;;;11.20;6.10;;;-0.20;99.90;;;;;;5032385;28;20548;-73
2023/01/21 00:47:23;;;;;;;20.60;8.93;;;-0.30;99.90;;;;;;5032370;28;20476;-73
2023/01/21 00:49:51;;;;;;;14.40;6.33;;;-0.50;99.90;;;;;;5032194;28;20459;-72
2023/01/21 00:52:18;;;;;;;13.63;7.40;;;-0.50;99.90;;;;;;5036872;28;20473;-72
2023/01/21 00:54:45;;;;;;;13.57;8.27;;;-0.50;99.90;;;;;;5048531;28;20519;-72
2023/01/21 00:57:12;;;;;;;14.00;7.03;;;-0.40;99.90;;;;;;5032809;28;20517;-72
2023/01/21 00:59:39;;;;;;;14.40;6.70;;;-0.40;99.90;;;;;;5032115;28;20551;-72
2023/01/21 01:02:06;;;;;;;9.47;5.83;;;-0.50;99.90;;;;;;5031945;28;20416;-72
2023/01/21 01:04:33;;;;;;;9.57;6.10;;;-0.40;99.90;;;;;;5032447;28;20424;-72
2023/01/21 01:07:02;;;;;;;9.40;6.90;;;-0.40;99.90;;;;;;5032038;28;20463;-72
2023/01/21 01:09:29;;;;;;;12.03;6.70;;;-0.50;99.90;;;;;;5032507;28;20460;-72
2023/01/21 01:11:56;;;;;;;30.27;8.20;;;-0.50;99.90;;;;;;5031489;28;20823;-72
2023/01/21 01:14:23;;;;;;;15.40;8.10;;;-0.40;99.90;;;;;;5031835;28;20495;-72
2023/01/21 01:16:50;;;;;;;14.83;9.30;;;-0.40;99.90;;;;;;5031919;28;20824;-72
2023/01/21 01:19:17;;;;;;;13.67;7.73;;;-0.60;99.90;;;;;;5031450;28;20491;-72
2023/01/21 01:21:44;;;;;;;10.43;7.70;;;-0.60;99.90;;;;;;5031406;28;20797;-72
2023/01/21 01:24:13;;;;;;;8.67;6.87;;;-0.50;99.90;;;;;;5031534;28;20441;-72
2023/01/21 01:26:40;;;;;;;11.90;6.70;;;-0.60;99.90;;;;;;5031950;28;20848;-72
2023/01/21 01:29:07;;;;;;;16.47;8.03;;;-0.70;99.90;;;;;;5031767;28;20563;-72
2023/01/21 01:31:34;;;;;;;11.67;9.07;;;-0.70;99.90;;;;;;5032436;28;20451;-72
2023/01/21 01:34:02;;;;;;;15.77;7.77;;;-0.60;99.90;;;;;;5040213;28;21058;-72
2023/01/21 01:36:29;;;;;;;15.83;9.43;;;-0.50;99.90;;;;;;5032137;28;20467;-72
2023/01/21 01:38:56;;;;;;;9.77;6.57;;;-0.50;99.90;;;;;;5031368;28;20547;-72
2023/01/21 01:41:28;;;;;;;10.70;6.87;;;-0.60;99.90;;;;;;5031507;28;20949;-72
2023/01/21 01:43:58;;;;;;;19.33;9.07;;;-0.60;99.90;;;;;;5031585;28;20480;-72
2023/01/21 01:46:27;;;;;;;9.50;5.77;;;-0.60;99.90;;;;;;5031448;28;20529;-72
2023/01/21 01:49:00;;;;;;;10.00;7.43;;;-0.60;99.90;;;;;;5033492;28;20556;-73
2023/01/21 01:51:33;;;;;;;21.47;8.10;;;-0.60;99.90;;;;;;5036572;28;20508;-74
2023/01/21 01:54:01;;;;;;;13.00;7.33;;;-0.70;99.90;;;;;;5035527;28;20504;-73
2023/01/21 01:56:30;;;;;;;15.27;10.30;;;-0.60;99.90;;;;;;5035478;28;20826;-73
2023/01/21 01:58:57;;;;;;;15.43;7.50;;;-0.70;99.90;;;;;;5035025;28;20547;-73
2023/01/21 02:01:24;;;;;;;6.60;4.80;;;-0.70;99.90;;;;;;5035587;28;20448;-73
2023/01/21 02:03:58;;;;;;;16.13;6.73;;;-0.60;99.90;;;;;;5035444;28;20433;-73
2023/01/21 02:06:26;;;;;;;13.40;10.80;;;-0.70;99.90;;;;;;5035433;28;20483;-73
2023/01/21 02:08:53;;;;;;;13.50;6.90;;;-0.70;99.90;;;;;;5036141;28;20564;-73
2023/01/21 02:11:21;;;;;;;10.73;6.63;;;-0.80;99.90;;;;;;5050370;28;20444;-73
2023/01/21 02:13:53;;;;;;;5.80;5.13;;;-0.80;99.90;;;;;;5039989;28;20461;-73
2023/01/21 02:16:57;;;;;;;4.40;3.50;;;-0.80;99.90;;;;;;5035559;28;20433;-73
2023/01/21 02:20:04;;;;;;;9.63;6.00;;;-0.90;99.90;;;;;;5035168;28;20483;-73
2023/01/21 02:22:37;;;;;;;4.27;3.70;;;-0.90;99.90;;;;;;5034723;28;20531;-73
2023/01/21 02:25:36;;;;;;;7.20;6.50;;;-0.90;99.90;;;;;;5035354;28;20426;-73
2023/01/21 02:28:36;;;;;;;4.93;4.43;;;-0.90;99.90;;;;;;5030818;28;20551;-73
2023/01/21 02:31:30;;;;;;;9.67;5.87;;;-0.90;99.90;;;;;;5034604;28;20430;-74
2023/01/21 02:34:14;;;;;;;11.97;5.70;;;-0.90;99.90;;;;;;5031983;28;20495;-73
2023/01/21 02:36:57;;;;;;;8.93;6.87;;;-1.00;99.90;;;;;;5034655;28;20451;-73
2023/01/21 02:39:33;;;;;;;8.70;4.20;;;-1.00;99.90;;;;;;5034678;28;20428;-73
2023/01/21 02:42:09;;;;;;;11.47;6.37;;;-0.90;99.90;;;;;;5034488;28;20407;-73
2023/01/21 02:44:39;;;;;;;11.33;7.70;;;-0.90;99.90;;;;;;5034155;28;20424;-73
2023/01/21 02:47:16;;;;;;;10.17;6.93;;;-0.90;99.90;;;;;;5034015;28;20483;-73
2023/01/21 02:49:49;;;;;;;12.77;8.13;;;-0.80;99.90;;;;;;5039427;28;20439;-72
2023/01/21 02:52:20;;;;;;;11.10;7.23;;;-0.80;99.90;;;;;;5039578;28;20488;-73
2023/01/21 02:54:56;;;;;;;16.80;10.27;;;-0.80;99.90;;;;;;5034185;28;20480;-73
2023/01/21 02:57:41;;;;;;;11.80;7.97;;;-0.80;99.90;;;;;;5033748;28;20559;-73
2023/01/21 03:00:14;;;;;;;12.60;6.40;;;-0.80;99.90;;;;;;5033418;28;20439;-73
2023/01/21 03:03:19;;;;;;;18.33;9.20;;;-0.80;99.90;;;;;;5034560;28;20417;-73
2023/01/21 03:06:06;;;;;;;9.50;7.27;;;-0.80;99.90;;;;;;5034304;28;20527;-73
2023/01/21 03:08:40;;;;;;;10.23;8.60;;;-0.80;99.90;;;;;;5034122;28;20541;-73
2023/01/21 03:11:14;;;;;;;16.30;9.80;;;-0.80;99.90;;;;;;5033637;28;20433;-73
2023/01/21 03:19:18;;;;;;;15.17;7.97;;;-0.70;99.90;;;;;;5033608;28;20440;-71
2023/01/21 03:21:48;;;;;;;17.97;7.80;;;-0.80;99.90;;;;;;5034028;28;20500;-73
2023/01/21 03:24:16;;;;;;;9.87;6.00;;;-0.80;99.90;;;;;;5034080;28;20445;-73
2023/01/21 03:26:48;;;;;;;13.07;7.70;;;-0.80;99.90;;;;;;5036783;28;20445;-71
2023/01/21 03:29:19;;;;;;;20.27;8.47;;;-0.80;99.90;;;;;;5048813;28;20544;-71
2023/01/21 03:31:50;;;;;;;15.43;8.07;;;-0.80;99.90;;;;;;5034166;28;20859;-74
2023/01/21 03:34:18;;;;;;;15.50;9.03;;;-0.80;99.90;;;;;;5033474;28;20485;-74
2023/01/21 03:36:50;;;;;;;13.30;9.50;;;-0.80;99.90;;;;;;5033808;28;20876;-72
2023/01/21 03:39:25;;;;;;;12.00;9.63;;;-0.80;99.90;;;;;;5033392;28;20453;-73
2023/01/21 03:41:52;;;;;;;29.77;9.53;;;-0.80;99.90;;;;;;5033957;28;20433;-72
2023/01/21 03:44:19;;;;;;;20.83;6.67;;;-0.80;99.90;;;;;;5033357;28;20572;-72
2023/01/21 03:46:56;;;;;;;17.33;9.03;;;-0.80;99.90;;;;;;5033063;28;20548;-72
2023/01/21 03:49:29;;;;;;;9.77;6.60;;;-0.80;99.90;;;;;;5032952;28;20866;-72
2023/01/21 03:52:00;;;;;;;11.13;7.73;;;-0.90;99.90;;;;;;5033684;28;20436;-72
2023/01/21 03:54:27;;;;;;;16.60;8.17;;;-0.90;99.90;;;;;;5033266;28;20439;-72
2023/01/21 03:56:54;;;;;;;10.83;8.47;;;-0.90;99.90;;;;;;5033093;28;20455;-72
2023/01/21 03:59:21;;;;;;;14.40;7.57;;;-0.90;99.90;;;;;;5033300;28;20447;-73
2023/01/21 04:01:48;;;;;;;15.17;7.80;;;-0.80;99.90;;;;;;5033275;28;20456;-73
2023/01/21 04:04:15;;;;;;;10.10;6.50;;;-0.90;99.90;;;;;;5033485;28;20540;-73
2023/01/21 04:06:42;;;;;;;15.33;9.20;;;-0.90;99.90;;;;;;5037164;28;20449;-72
2023/01/21 04:09:11;;;;;;;14.27;8.80;;;-1.00;99.90;;;;;;5042717;28;20553;-73
2023/01/21 04:11:38;;;;;;;18.07;10.13;;;-1.10;99.90;;;;;;5034169;28;20528;-73
2023/01/21 04:14:05;;;;;;;13.37;6.37;;;-1.10;99.90;;;;;;5033124;28;20452;-73
2023/01/21 04:16:32;;;;;;;13.73;7.13;;;-1.20;99.90;;;;;;5033352;28;20491;-74
2023/01/21 04:18:59;;;;;;;6.60;5.90;;;-1.20;99.90;;;;;;5032734;28;20469;-73
2023/01/21 04:21:26;;;;;;;15.57;8.57;;;-1.20;99.90;;;;;;5033163;28;20448;-73
2023/01/21 04:23:53;;;;;;;11.17;7.53;;;-1.30;99.90;;;;;;5033084;28;20449;-73
2023/01/21 04:26:22;;;;;;;11.63;7.73;;;-1.30;99.90;;;;;;5033276;28;20449;-73
2023/01/21 04:28:49;;;;;;;15.63;7.60;;;-1.20;99.90;;;;;;5032841;28;20472;-73
2023/01/21 04:31:15;;;;;;;11.13;6.57;;;-1.30;99.90;;;;;;5032593;28;20535;-73
2023/01/21 04:33:42;;;;;;;14.90;8.20;;;-1.40;99.90;;;;;;5032443;28;21191;-73
2023/01/21 04:36:09;;;;;;;12.17;6.77;;;-1.50;99.90;;;;;;5032910;28;20537;-74
2023/01/21 04:38:37;;;;;;;15.83;10.20;;;-1.40;99.90;;;;;;5032599;28;20469;-73
2023/01/21 04:41:04;;;;;;;12.27;7.20;;;-1.40;99.90;;;;;;5033256;28;20445;-74
2023/01/21 04:43:32;;;;;;;14.50;6.10;;;-1.40;99.90;;;;;;5034236;28;20450;-73
2023/01/21 04:45:59;;;;;;;12.93;5.67;;;-1.30;99.90;;;;;;5047306;28;20492;-74
2023/01/21 04:48:25;;;;;;;19.07;8.37;;;-1.30;99.90;;;;;;5036881;28;20465;-73
2023/01/21 04:50:52;;;;;;;10.10;8.00;;;-1.40;99.90;;;;;;5032935;28;20796;-74
2023/01/21 04:53:19;;;;;;;13.43;8.03;;;-1.30;99.90;;;;;;5033059;28;20445;-73
2023/01/21 04:55:46;;;;;;;17.87;8.13;;;-1.40;99.90;;;;;;5032439;28;21007;-73
2023/01/21 04:58:13;;;;;;;10.43;4.77;;;-1.50;99.90;;;;;;5032045;28;20559;-74
2023/01/21 05:00:41;;;;;;;14.03;6.47;;;-1.60;99.90;;;;;;5032181;28;20483;-73
2023/01/21 05:03:08;;;;;;;12.40;7.97;;;-1.70;99.90;;;;;;5032751;28;20535;-73
2023/01/21 05:05:35;;;;;;;13.03;7.67;;;-1.60;99.90;;;;;;5032503;28;20448;-73
2023/01/21 05:08:02;;;;;;;13.77;6.90;;;-1.60;99.90;;;;;;5032791;28;20830;-73
2023/01/21 05:10:29;;;;;;;10.63;6.80;;;-1.60;99.90;;;;;;5032068;28;20923;-73
2023/01/21 05:12:56;;;;;;;26.50;6.77;;;-1.60;99.90;;;;;;5031999;28;20523;-73
2023/01/21 05:15:23;;;;;;;16.23;8.43;;;-1.50;99.90;;;;;;5032046;28;20484;-73
2023/01/21 05:17:51;;;;;;;10.50;7.50;;;-1.40;99.90;;;;;;5031696;28;20989;-74
2023/01/21 05:20:18;;;;;;;19.70;6.93;;;-1.40;99.90;;;;;;5031862;28;20466;-73
2023/01/21 05:22:46;;;;;;;23.67;8.47;;;-1.40;99.90;;;;;;5031804;28;20833;-74
2023/01/21 05:25:13;;;;;;;11.17;5.63;;;-1.30;99.90;;;;;;5044350;28;20516;-73
2023/01/21 05:27:39;;;;;;;17.73;7.10;;;-1.30;99.90;;;;;;5032538;28;20464;-73
2023/01/21 05:30:08;;;;;;;11.63;6.97;;;-1.40;99.90;;;;;;5032201;28;20531;-73
2023/01/21 05:32:35;;;;;;;14.30;6.80;;;-1.60;99.90;;;;;;5032361;28;20463;-74
2023/01/21 05:35:03;;;;;;;18.50;7.80;;;-1.70;99.90;;;;;;5032032;28;20515;-73
2023/01/21 05:37:31;;;;;;;15.63;5.83;;;-1.80;99.90;;;;;;5031846;28;20515;-73
2023/01/21 05:39:57;;;;;;;10.83;4.97;;;-1.90;99.90;;;;;;5031744;28;20472;-73
2023/01/21 05:42:24;;;;;;;17.60;7.13;;;-1.90;99.90;;;;;;5031848;28;20531;-73
2023/01/21 05:44:51;;;;;;;14.63;7.53;;;-1.90;99.90;;;;;;5031505;28;20445;-73
2023/01/21 05:47:18;;;;;;;10.27;5.27;;;-1.80;99.90;;;;;;5031356;28;20884;-73
2023/01/21 05:49:45;;;;;;;21.20;9.47;;;-1.70;99.90;;;;;;5031685;28;20507;-73
2023/01/21 05:52:13;;;;;;;10.20;5.20;;;-1.80;99.90;;;;;;5031211;28;20532;-73
2023/01/21 05:54:40;;;;;;;13.17;8.63;;;-1.70;99.90;;;;;;5031910;28;20552;-73
2023/01/21 05:57:07;;;;;;;11.37;5.80;;;-1.60;99.90;;;;;;5031480;28;20544;-73
2023/01/21 05:59:34;;;;;;;9.93;7.70;;;-1.70;99.90;;;;;;5031672;28;20536;-73
2023/01/21 06:02:01;;;;;;;14.63;8.47;;;-1.70;99.90;;;;;;5041729;28;20469;-73
2023/01/21 06:04:29;;;;;;;13.90;8.27;;;-1.60;99.90;;;;;;5043160;28;20460;-73
2023/01/21 06:06:56;;;;;;;14.50;5.20;;;-1.50;99.90;;;;;;5032048;28;20509;-73
2023/01/21 06:09:24;;;;;;;15.13;6.47;;;-1.50;99.90;;;;;;5032202;28;20423;-73
2023/01/21 06:11:51;;;;;;;12.30;6.60;;;-1.70;99.90;;;;;;5031940;28;20437;-73
2023/01/21 06:14:18;;;;;;;16.67;8.33;;;-1.80;99.90;;;;;;5031324;28;20419;-73
2023/01/21 06:16:45;;;;;;;19.63;9.53;;;-1.90;99.90;;;;;;5031442;28;20803;-74
2023/01/21 06:19:12;;;;;;;13.63;9.00;;;-1.80;99.90;;;;;;5031542;28;20522;-74
2023/01/21 06:21:39;;;;;;;15.90;10.40;;;-1.70;99.90;;;;;;5031730;28;20823;-74
2023/01/21 06:24:06;;;;;;;4.27;3.87;;;-1.70;99.90;;;;;;5031692;28;20461;-74
2023/01/21 06:26:34;;;;;;;11.13;8.33;;;-1.60;99.90;;;;;;5031180;28;20441;-74
2023/01/21 06:29:01;;;;;;;12.13;7.53;;;-1.60;99.90;;;;;;5031906;28;20475;-73
2023/01/21 06:31:28;;;;;;;25.87;11.70;;;-1.50;99.90;;;;;;5031361;28;20472;-74
2023/01/21 06:33:55;;;;;;;10.33;6.33;;;-1.50;99.90;;;;;;5031190;28;20419;-74
2023/01/21 06:36:22;;;;;;;14.90;9.03;;;-1.40;99.90;;;;;;5033417;28;20486;-71
2023/01/21 06:38:49;;;;;;;17.57;7.17;;;-1.30;99.90;;;;;;5034727;28;21028;-75
2023/01/21 06:41:15;;;;;;;17.43;10.70;;;-1.30;99.90;;;;;;5042083;28;20436;-72
2023/01/21 06:43:44;;;;;;;13.60;8.03;;;-1.20;99.90;;;;;;5039295;28;20532;-73
2023/01/21 06:46:11;;;;;;;19.30;8.30;;;-1.10;99.90;;;;;;5034488;28;20445;-72
2023/01/21 06:48:38;;;;;;;11.57;6.13;;;-1.10;99.90;;;;;;5034595;28;20469;-72
2023/01/21 06:51:05;;;;;;;9.23;6.73;;;-1.00;99.90;;;;;;5034031;28;20543;-72
2023/01/21 06:53:32;;;;;;;25.20;8.30;;;-0.90;99.90;;;;;;5034198;28;20452;-72
2023/01/21 06:55:59;;;;;;;22.00;10.53;;;-0.90;99.90;;;;;;5034317;28;20564;-72
2023/01/21 06:58:27;;;;;;;24.37;9.90;;;-0.80;99.90;;;;;;5033766;28;20477;-72
2023/01/21 07:00:57;;;;;;;25.90;10.13;;;-0.70;99.90;;;;;;5034075;28;20506;-73
2023/01/21 07:03:24;;;;;;;23.00;10.67;;;-0.70;99.90;;;;;;5036198;28;20434;-74
2023/01/21 07:05:51;;;;;;;31.10;10.17;;;-0.70;99.90;;;;;;5035057;28;20481;-73
2023/01/21 07:08:17;;;;;;;19.90;10.17;;;-0.70;99.90;;;;;;5035030;28;20534;-77
2023/01/21 07:10:44;;;;;;;21.17;11.07;;;-0.70;99.90;;;;;;5034197;28;20463;-73
2023/01/21 07:13:11;;;;;;;21.83;10.70;;;-0.60;99.90;;;;;;5034370;28;20445;-73
2023/01/21 07:15:38;;;;;;;12.93;7.83;;;-0.60;99.90;;;;;;5033944;28;21086;-73
2023/01/21 07:18:06;;;;;;;21.33;10.73;;;-0.60;99.90;;;;;;5035050;28;20473;-73
2023/01/21 07:20:34;;;;;;;12.93;6.87;;;-0.60;99.90;;;;;;5047375;28;20520;-73
2023/01/21 07:23:01;;;;;;;11.10;9.50;;;-0.50;99.90;;;;;;5034737;28;20449;-73
2023/01/21 07:25:27;;;;;;;25.53;9.97;;;-0.50;99.90;;;;;;5034885;28;20543;-74
2023/01/21 07:27:54;;;;;;;16.70;6.50;;;-0.50;99.90;;;;;;5034555;28;20472;-73
2023/01/21 07:30:21;;;;;;;10.00;5.83;;;-0.50;99.90;;;;;;5034421;28;20833;-73
2023/01/21 07:32:49;;;;;;;18.40;12.70;;;-0.50;99.90;;;;;;5033853;28;20845;-73
2023/01/21 07:35:17;;;;;;;17.50;11.63;;;-0.40;99.90;;;;;;5033612;28;20491;-73
2023/01/21 07:37:44;;;;;;;24.73;7.87;;;-0.40;99.90;;;;;;5033619;28;20447;-73
2023/01/21 07:40:12;;;;;;;22.00;9.70;;;-0.30;99.90;;;;;;5033902;28;20540;-73
2023/01/21 07:42:39;;;;;;;19.17;7.80;;;-0.20;99.90;;;;;;5033988;28;21077;-74
2023/01/21 07:45:06;;;;;;;23.07;10.30;;;-0.10;99.90;;;;;;5033202;28;20488;-73
2023/01/21 07:47:33;;;;;;;11.77;6.73;;;-0.10;99.90;;;;;;5033097;28;20465;-73
2023/01/21 07:50:07;;;;;;;13.50;7.30;;;0.00;99.90;;;;;;5033557;28;20536;-74
2023/01/21 07:52:35;;;;;;;28.07;11.23;;;0.00;99.90;;;;;;5033564;28;20411;-74
2023/01/21 07:55:03;;;;;;;17.67;9.37;;;0.10;99.90;;;;;;5033638;28;20449;-73
2023/01/21 07:57:30;;;;;;;20.17;9.20;;;0.10;99.90;;;;;;5034839;28;20492;-72
2023/01/21 07:59:57;;;;;;;19.07;12.03;;;0.10;99.90;;;;;;5040395;28;20471;-71
2023/01/21 08:02:24;;;;;;;14.33;7.67;;;0.30;99.90;;;;;;5032944;28;20893;-72
2023/01/21 08:04:51;;;;;;;18.63;6.90;;;0.30;99.90;;;;;;5033137;28;20509;-72
2023/01/21 08:07:18;;;;;;;18.10;8.87;;;0.40;99.90;;;;;;5033119;28;21007;-72
2023/01/21 08:09:46;;;;;;;18.63;8.93;;;0.40;99.90;;;;;;5033228;28;20519;-72
2023/01/21 08:12:13;;;;;;;21.00;9.83;;;0.50;99.90;;;;;;5033416;28;20567;-72
2023/01/21 08:14:40;;;;;;;23.50;8.67;;;0.50;99.90;;;;;;5033548;28;20452;-74
2023/01/21 08:17:07;;;;;;;16.60;6.83;;;0.50;99.90;;;;;;5033023;28;20491;-72
2023/01/21 08:19:34;;;;;;;19.00;9.20;;;0.50;99.90;;;;;;5032949;28;20544;-72
2023/01/21 08:22:01;;;;;;;20.90;9.43;;;0.50;99.90;;;;;;5032783;28;20464;-72
2023/01/21 08:24:27;;;;;;;39.20;10.83;;;0.50;99.90;;;;;;5032591;28;20522;-72
2023/01/21 08:26:58;;;;;;;22.13;9.73;;;0.60;99.90;;;;;;5032878;28;20484;-73
2023/01/21 08:29:25;;;;;;;15.70;7.97;;;0.60;99.90;;;;;;5033135;28;20429;-72
2023/01/21 08:31:53;;;;;;;16.97;10.80;;;0.50;99.90;;;;;;5032746;28;20445;-72
2023/01/21 08:34:20;;;;;;;17.43;8.30;;;0.60;99.90;;;;;;5033220;28;20475;-72
2023/01/21 08:36:47;;;;;;;24.97;9.90;;;0.50;99.90;;;;;;5035026;28;20491;-73
2023/01/21 08:39:15;;;;;;;12.17;8.67;;;0.60;99.90;;;;;;5033586;28;20472;-73
2023/01/21 08:41:43;;;;;;;20.97;9.30;;;0.80;99.90;;;;;;5031704;28;20760;-73
2023/01/21 08:44:11;;;;;;;17.67;10.00;;;0.70;99.90;;;;;;5032393;28;20457;-73
2023/01/21 08:46:38;;;;;;;17.13;9.67;;;0.60;99.90;;;;;;5032140;28;20420;-73
2023/01/21 08:49:06;;;;;;;15.83;7.13;;;0.70;99.90;;;;;;5032228;28;20465;-73
2023/01/21 08:51:33;;;;;;;24.57;9.10;;;0.70;99.90;;;;;;5031518;28;20456;-73
2023/01/21 08:54:00;;;;;;;26.33;11.30;;;0.70;99.90;;;;;;5032104;28;20455;-73
2023/01/21 08:56:27;;;;;;;19.13;7.33;;;0.70;99.90;;;;;;5032325;28;20489;-73
2023/01/21 08:58:55;;;;;;;26.90;10.70;;;0.70;99.90;;;;;;5031088;28;20481;-73
2023/01/21 09:01:24;;;;;;;23.03;10.20;;;0.70;99.90;;;;;;5032235;28;20510;-72
2023/01/21 09:03:55;;;;;;;27.37;11.80;;;0.70;99.90;;;;;;5032098;28;20457;-73
2023/01/21 09:06:23;;;;;;;29.07;9.73;;;0.90;99.90;;;;;;5031856;28;20859;-73
2023/01/21 09:08:49;;;;;;;13.03;10.17;;;1.00;99.90;;;;;;5031794;28;20497;-73
2023/01/21 09:11:17;;;;;;;17.03;8.97;;;1.00;99.90;;;;;;5032071;28;21013;-73
2023/01/21 09:13:44;;;;;;;19.80;8.90;;;1.00;99.90;;;;;;5031534;28;20464;-73
2023/01/21 09:16:13;;;;;;;20.33;9.37;;;1.00;99.90;;;;;;5031647;28;20515;-73
2023/01/21 09:18:42;;;;;;;16.33;8.77;;;1.10;99.90;;;;;;5031914;28;20444;-72
2023/01/21 09:21:10;;;;;;;17.83;9.90;;;1.20;99.90;;;;;;5031948;28;20424;-73
2023/01/21 09:23:38;;;;;;;20.23;10.10;;;1.20;99.90;;;;;;5032239;28;20448;-74
2023/01/21 09:26:07;;;;;;;20.47;7.97;;;1.10;99.90;;;;;;5031748;28;20481;-73
2023/01/21 09:28:36;;;;;;;18.93;11.60;;;1.20;99.90;;;;;;5031646;28;20465;-74
2023/01/21 09:31:05;;;;;;;21.20;8.43;;;1.20;99.90;;;;;;5031535;28;21015;-73
2023/01/21 09:33:34;;;;;;;24.47;10.43;;;1.30;99.90;;;;;;5032296;28;20511;-74
2023/01/21 09:36:04;;;;;;;13.63;7.30;;;1.20;99.90;;;;;;5031611;28;20464;-73
2023/01/21 09:38:31;;;;;;;17.23;7.43;;;1.30;99.90;;;;;;5031530;28;20567;-73
2023/01/21 09:41:04;;;;;;;19.57;9.97;;;1.40;99.90;;;;;;5031959;28;20504;-73
2023/01/21 09:43:40;;;;;;;12.70;5.27;;;1.30;99.90;;;;;;5031897;28;20435;-73
2023/01/21 09:46:15;;;;;;;23.73;8.30;;;1.10;99.90;;;;;;5031936;28;20404;-73
2023/01/21 09:48:45;;;;;;;27.23;11.10;;;1.10;99.90;;;;;;5031557;28;20893;-72
2023/01/21 09:51:19;;;;;;;17.43;9.83;;;1.00;99.90;;;;;;5032114;28;20412;-72
2023/01/21 09:53:50;;;;;;;24.40;10.30;;;1.20;99.90;;;;;;5034957;28;20471;-72
2023/01/21 09:56:28;;;;;;;22.00;9.93;;;1.30;99.90;;;;;;5033400;28;20496;-73
2023/01/21 09:59:04;;;;;;;13.57;7.97;;;1.30;99.90;;;;;;5031344;28;20545;-73
2023/01/21 10:01:34;;;;;;;13.37;8.97;;;1.40;99.90;;;;;;5030895;28;20421;-73
2023/01/21 10:04:27;;;;;;;23.50;8.70;;;1.40;99.90;;;;;;5031387;28;20452;-73
2023/01/21 10:07:02;;;;;;;31.43;10.87;;;1.50;99.90;;;;;;5031535;28;20425;-73
2023/01/21 10:09:41;;;;;;;17.30;8.43;;;1.50;99.90;;;;;;5032231;28;20899;-74
2023/01/21 10:12:25;;;;;;;20.53;10.20;;;1.60;99.90;;;;;;5035322;28;20429;-73
2023/01/21 10:15:12;;;;;;;17.70;10.57;;;1.60;99.90;;;;;;5035064;28;20449;-74
2023/01/21 10:17:50;;;;;;;25.57;8.33;;;1.40;99.90;;;;;;5034764;28;20491;-72
2023/01/21 10:20:23;;;;;;;19.43;10.37;;;1.60;99.90;;;;;;5035111;28;20441;-73
2023/01/21 10:22:56;;;;;;;19.50;8.37;;;1.60;99.90;;;;;;5035197;28;20567;-73
2023/01/21 10:25:29;;;;;;;25.67;11.17;;;1.60;99.90;;;;;;5034934;28;20400;-72
2023/01/21 10:27:58;;;;;;;16.37;9.93;;;1.80;99.90;;;;;;5034619;28;20552;-73
2023/01/21 10:30:29;;;;;;;16.77;7.87;;;1.80;99.90;;;;;;5034720;28;20857;-73
2023/01/21 10:32:56;;;;;;;20.20;7.30;;;1.80;99.90;;;;;;5034992;28;20580;-73
2023/01/21 10:35:39;;;;;;;13.43;7.87;;;1.80;99.90;;;;;;5034563;28;20903;-73
2023/01/21 10:38:15;;;;;;;20.90;8.07;;;1.80;99.90;;;;;;5034355;28;20481;-73
2023/01/21 10:40:48;;;;;;;24.67;11.50;;;2.00;99.90;;;;;;5035181;28;20476;-73
2023/01/21 10:43:32;;;;;;;36.03;9.20;;;2.20;99.90;;;;;;5034310;28;20434;-73
2023/01/21 10:46:09;;;;;;;23.47;10.97;;;2.30;99.90;;;;;;5034884;28;20412;-73
2023/01/21 10:48:42;;;;;;;21.13;9.33;;;2.10;99.90;;;;;;5034696;28;20464;-74
2023/01/21 10:51:17;;;;;;;18.83;8.70;;;2.00;99.90;;;;;;5035004;28;20444;-73
2023/01/21 10:53:51;;;;;;;10.60;5.77;;;1.90;99.90;;;;;;5034518;28;20458;-73
2023/01/21 10:56:29;;;;;;;15.43;8.13;;;1.90;99.90;;;;;;5034573;28;20429;-73
2023/01/21 10:59:00;;;;;;;24.40;9.73;;;1.90;99.90;;;;;;5034106;28;20531;-73
2023/01/21 11:01:30;;;;;;;24.30;7.70;;;2.10;99.90;;;;;;5034335;28;20472;-73
2023/01/21 11:04:00;;;;;;;10.53;6.10;;;2.00;99.90;;;;;;5034242;28;20873;-73
2023/01/21 11:06:31;;;;;;;17.77;8.10;;;2.10;99.90;;;;;;5034302;28;20468;-73
2023/01/21 11:09:02;;;;;;;11.33;6.73;;;2.20;99.90;;;;;;5034630;28;20923;-73
2023/01/21 11:11:31;;;;;;;28.20;9.60;;;2.10;99.90;;;;;;5037023;28;20495;-73
2023/01/21 11:13:59;;;;;;;17.87;10.67;;;2.00;99.90;;;;;;5034229;28;20453;-72
2023/01/21 11:16:45;;;;;;;19.35;10.75;;;1.90;99.90;;;;;;5033870;28;20420;-72
2023/01/21 11:19:15;;;;;;;15.20;7.30;;;2.00;99.90;;;;;;5033889;28;20493;-73
2023/01/21 11:21:58;;;;;;;11.17;8.83;;;2.00;99.90;;;;;;5032873;28;20451;-73
2023/01/21 11:24:28;;;;;;;19.03;8.50;;;2.10;99.90;;;;;;5033918;28;20461;-73
2023/01/21 11:26:58;;;;;;;23.43;8.73;;;2.10;99.90;;;;;;5033353;28;20976;-73
2023/01/21 11:29:25;;;;;;;21.10;9.27;;;2.20;99.90;;;;;;5034105;28;20826;-73
2023/01/21 11:32:02;;;;;;;29.13;10.63;;;2.20;99.90;;;;;;5033120;28;20466;-73
2023/01/21 11:34:33;;;;;;;16.70;6.10;;;2.30;99.90;;;;;;5033640;28;20495;-73
2023/01/21 11:37:02;;;;;;;21.93;9.30;;;2.40;99.90;;;;;;5033183;28;20811;-72
2023/01/21 11:39:33;;;;;;;21.07;11.07;;;2.30;99.90;;;;;;5033338;28;21052;-72
2023/01/21 11:42:06;;;;;;;25.30;9.33;;;2.20;99.90;;;;;;5033149;28;20437;-72
2023/01/21 11:44:34;;;;;;;20.57;9.80;;;2.10;99.90;;;;;;5033116;28;20490;-73
2023/01/21 11:47:01;;;;;;;18.20;9.10;;;2.20;99.90;;;;;;5033174;28;20454;-72
2023/01/21 11:49:31;;;;;;;21.37;8.57;;;2.30;99.90;;;;;;5033479;28;20535;-73
2023/01/21 11:52:20;;;;;;;7.87;5.53;;;2.30;99.90;;;;;;5033237;28;20910;-73
2023/01/21 11:54:48;;;;;;;13.20;6.00;;;2.40;99.90;;;;;;5029232;28;20470;-73
2023/01/21 11:57:30;;;;;;;16.83;7.80;;;2.40;99.90;;;;;;5032747;28;20471;-72
2023/01/21 12:00:06;;;;;;;14.03;6.10;;;2.40;99.90;;;;;;5032771;28;20894;-73
2023/01/21 12:02:36;;;;;;;18.50;9.90;;;2.50;99.90;;;;;;5032607;28;20465;-73
2023/01/21 12:05:11;;;;;;;15.47;7.10;;;2.50;99.90;;;;;;5032663;28;20427;-73
2023/01/21 12:07:41;;;;;;;14.67;6.90;;;2.50;99.90;;;;;;5032984;28;20472;-73
2023/01/21 12:10:26;;;;;;;15.37;7.13;;;2.60;99.90;;;;;;5033043;28;20441;-73
2023/01/21 12:13:12;;;;;;;15.43;6.50;;;2.50;99.90;;;;;;5032526;28;20475;-72
2023/01/21 12:16:02;;;;;;;21.53;8.83;;;2.50;99.90;;;;;;5032580;28;20468;-73
2023/01/21 12:18:41;;;;;;;12.33;6.13;;;2.70;99.90;;;;;;5031331;28;20485;-72
2023/01/21 12:21:20;;;;;;;10.47;5.73;;;2.70;99.90;;;;;;5032927;28;20474;-73
2023/01/21 12:24:01;;;;;;;6.90;4.50;;;2.80;99.90;;;;;;5033623;28;20433;-73
2023/01/21 12:26:37;;;;;;;15.90;10.20;;;2.70;99.90;;;;;;5033546;28;20433;-72
2023/01/21 12:29:30;;;;;;;15.27;10.13;;;2.70;99.90;;;;;;5035465;28;20551;-72
2023/01/21 12:32:03;;;;;;;20.17;6.80;;;2.70;99.90;;;;;;5029727;28;20453;-73
2023/01/21 12:34:35;;;;;;;11.37;6.80;;;2.70;99.90;;;;;;5032108;28;20772;-74
2023/01/21 12:37:09;;;;;;;10.57;7.13;;;2.70;99.90;;;;;;5032210;28;20593;-73
2023/01/21 12:39:37;;;;;;;8.10;4.57;;;2.70;99.90;;;;;;5032309;28;20433;-73
2023/01/21 12:42:11;;;;;;;17.87;9.80;;;2.80;99.90;;;;;;5032165;28;20504;-73
2023/01/21 12:44:43;;;;;;;13.93;6.63;;;2.80;99.90;;;;;;5032340;28;20429;-73
2023/01/21 12:47:19;;;;;;;14.67;6.20;;;2.90;99.90;;;;;;5032016;28;20512;-73
2023/01/21 12:50:01;;;;;;;19.93;7.20;;;2.90;99.90;;;;;;5031942;28;20465;-73
2023/01/21 12:52:34;;;;;;;14.53;5.10;;;2.70;99.90;;;;;;5032138;28;20487;-73
2023/01/21 12:55:11;;;;;;;11.83;6.47;;;2.70;99.90;;;;;;5031900;28;20429;-73
2023/01/21 12:57:46;;;;;;;12.97;7.47;;;2.80;99.90;;;;;;5031665;28;20604;-74
2023/01/21 13:00:19;;;;;;;15.77;6.97;;;2.80;99.90;;;;;;5032290;28;20727;-73
2023/01/21 13:02:55;;;;;;;9.30;6.47;;;2.80;99.90;;;;;;5032426;28;20491;-73